Time;durP1;ratioP1;P1;durP2;ratioP2;P2;SDS_P1;SDS_P2;PMS_P1;PMS_P2;Temp;Humidity;BMP_temperature;BMP_pressure;BME280_temperature;BME280_humidity;BME280_pressure;Samples;Min_cycle;Max_cycle;Signal;HPM_P1;HPM_P2
2022/04/11 00:00:43;;;;;;;10.07;3.33;;;2.00;99.90;;;;;;4944204;28;71118;-72
2022/04/11 00:03:09;;;;;;;9.57;3.10;;;2.00;99.90;;;;;;4982128;28;20579;-72
2022/04/11 00:05:35;;;;;;;9.18;3.00;;;2.00;99.90;;;;;;4943683;28;255754;-72
2022/04/11 00:08:02;;;;;;;9.32;2.90;;;2.00;99.90;;;;;;4978685;28;20527;-72
2022/04/11 00:10:28;;;;;;;9.55;2.70;;;1.90;99.90;;;;;;4979271;28;156678;-73
2022/04/11 00:13:04;;;;;;;10.20;2.75;;;1.90;99.90;;;;;;4973761;28;20053;-73
2022/04/11 00:15:33;;;;;;;9.98;2.47;;;1.90;99.90;;;;;;4948598;28;228972;-72
2022/04/11 00:18:02;;;;;;;8.95;2.80;;;1.90;99.90;;;;;;4972470;28;20050;-73
2022/04/11 00:20:29;;;;;;;8.13;2.83;;;1.80;99.90;;;;;;4964207;28;221385;-72
2022/04/11 00:22:56;;;;;;;10.27;2.80;;;1.80;99.90;;;;;;4957943;28;20056;-73
2022/04/11 00:25:22;;;;;;;11.55;2.78;;;1.80;99.90;;;;;;4994779;28;252383;-73
2022/04/11 00:27:48;;;;;;;15.32;2.90;;;1.70;99.90;;;;;;4971922;28;20596;-73
2022/04/11 00:30:14;;;;;;;10.73;2.63;;;1.70;99.90;;;;;;4983099;28;263353;-73
2022/04/11 00:32:44;;;;;;;10.25;2.95;;;1.70;99.90;;;;;;4957024;28;20089;-73
2022/04/11 00:35:11;;;;;;;10.52;2.83;;;1.70;99.90;;;;;;4994581;28;20053;-73
2022/04/11 00:37:37;;;;;;;9.43;3.03;;;1.60;99.90;;;;;;4958000;28;20154;-73
2022/04/11 00:40:09;;;;;;;13.30;2.75;;;1.60;99.90;;;;;;4991181;28;58343;-73
2022/04/11 00:42:35;;;;;;;8.57;2.63;;;1.60;99.90;;;;;;4940779;28;20053;-73
2022/04/11 00:45:02;;;;;;;9.45;3.10;;;1.60;99.90;;;;;;4994160;28;51239;-73
2022/04/11 00:47:28;;;;;;;10.73;2.83;;;1.60;99.90;;;;;;4951889;28;20783;-73
2022/04/11 00:50:00;;;;;;;9.80;2.90;;;1.50;99.90;;;;;;4979338;28;196834;-73
2022/04/11 00:52:31;;;;;;;9.65;2.97;;;1.50;99.90;;;;;;4940974;28;20058;-73
2022/04/11 00:54:58;;;;;;;19.87;3.33;;;1.40;99.90;;;;;;4985616;28;209344;-73
2022/04/11 00:57:25;;;;;;;9.05;2.95;;;1.40;99.90;;;;;;4972296;28;20052;-73
2022/04/11 00:59:52;;;;;;;9.98;3.00;;;1.40;99.90;;;;;;4978479;28;20434;-73
2022/04/11 01:02:19;;;;;;;10.52;2.97;;;1.40;99.90;;;;;;4960422;28;20418;-73
2022/04/11 01:04:45;;;;;;;9.75;3.05;;;1.40;99.90;;;;;;4966378;28;176464;-73
2022/04/11 01:07:11;;;;;;;11.95;3.30;;;1.40;99.90;;;;;;4955970;28;20051;-73
2022/04/11 01:09:37;;;;;;;9.02;3.05;;;1.30;99.90;;;;;;4975534;28;274322;-73
2022/04/11 01:12:04;;;;;;;15.15;3.53;;;1.30;99.90;;;;;;4954286;28;20045;-73
2022/04/11 01:14:30;;;;;;;9.98;3.00;;;1.30;99.90;;;;;;4991759;28;255249;-73
2022/04/11 01:16:57;;;;;;;8.95;3.20;;;1.30;99.90;;;;;;4932408;28;20045;-73
2022/04/11 01:19:23;;;;;;;13.68;3.30;;;1.30;99.90;;;;;;4980153;28;185939;-73
2022/04/11 01:21:50;;;;;;;9.48;3.00;;;1.30;99.90;;;;;;4973142;28;20048;-73
2022/04/11 01:24:21;;;;;;;10.75;3.40;;;1.30;99.90;;;;;;4989127;28;126533;-73
2022/04/11 01:26:49;;;;;;;14.90;3.67;;;1.20;99.90;;;;;;4962035;28;20096;-73
2022/04/11 01:29:16;;;;;;;10.38;3.75;;;1.20;99.90;;;;;;4962281;28;183303;-73
2022/04/11 01:31:43;;;;;;;9.88;3.20;;;1.20;99.90;;;;;;4959400;28;20045;-73
2022/04/11 01:34:09;;;;;;;9.98;3.50;;;1.20;99.90;;;;;;4987738;28;264772;-72
2022/04/11 01:36:35;;;;;;;10.32;3.40;;;1.20;99.90;;;;;;4948713;28;20046;-73
2022/04/11 01:39:03;;;;;;;11.10;3.08;;;1.20;99.90;;;;;;4970888;28;266455;-72
2022/04/11 01:41:29;;;;;;;9.48;3.10;;;1.20;99.90;;;;;;4979573;28;20034;-72
2022/04/11 01:43:55;;;;;;;9.37;3.00;;;1.20;99.90;;;;;;4980631;28;260415;-72
2022/04/11 01:46:21;;;;;;;10.48;3.40;;;1.20;99.90;;;;;;4952919;28;20050;-72
2022/04/11 01:48:47;;;;;;;12.20;3.47;;;1.10;99.90;;;;;;4990512;28;20060;-72
2022/04/11 01:51:14;;;;;;;10.63;3.38;;;1.10;99.90;;;;;;4944805;28;109307;-72
2022/04/11 01:53:41;;;;;;;14.77;3.80;;;1.10;99.90;;;;;;5001029;28;20065;-72
2022/04/11 01:56:07;;;;;;;10.90;3.35;;;1.10;99.90;;;;;;4940468;28;216845;-72
2022/04/11 01:58:33;;;;;;;11.32;3.15;;;1.10;99.90;;;;;;4999118;28;20057;-72
2022/04/11 02:00:59;;;;;;;9.02;3.42;;;1.10;99.90;;;;;;4959772;28;202707;-72
2022/04/11 02:03:26;;;;;;;7.95;3.17;;;1.10;99.90;;;;;;5003709;28;20049;-72
2022/04/11 02:05:53;;;;;;;10.45;3.47;;;1.10;99.90;;;;;;4952175;28;255456;-72
2022/04/11 02:08:20;;;;;;;12.13;3.65;;;1.00;99.90;;;;;;4985502;28;20886;-72
2022/04/11 02:10:46;;;;;;;10.77;3.70;;;1.10;99.90;;;;;;4969146;28;267445;-72
2022/04/11 02:13:12;;;;;;;9.55;3.45;;;1.00;99.90;;;;;;5002277;28;20555;-73
2022/04/11 02:15:39;;;;;;;10.52;3.17;;;1.00;99.90;;;;;;4948927;28;182019;-72
2022/04/11 02:18:05;;;;;;;11.23;3.42;;;1.00;99.90;;;;;;5002661;28;20059;-72
2022/04/11 02:20:31;;;;;;;11.25;3.53;;;1.00;99.90;;;;;;4954721;28;67122;-71
2022/04/11 02:22:59;;;;;;;11.50;3.38;;;1.00;99.90;;;;;;4970609;28;21219;-72
2022/04/11 02:25:28;;;;;;;10.90;3.88;;;1.00;99.90;;;;;;4995148;28;267538;-71
2022/04/11 02:27:55;;;;;;;11.30;3.90;;;0.90;99.90;;;;;;4969262;28;20046;-72
2022/04/11 02:30:24;;;;;;;9.98;3.58;;;1.00;99.90;;;;;;4992054;28;97058;-72
2022/04/11 02:32:52;;;;;;;10.43;3.75;;;0.90;99.90;;;;;;4946042;28;20402;-72
2022/04/11 02:35:19;;;;;;;11.25;3.53;;;0.90;99.90;;;;;;4977107;28;64519;-72
2022/04/11 02:37:45;;;;;;;7.93;3.17;;;0.90;99.90;;;;;;4969311;28;20045;-72
2022/04/11 02:40:12;;;;;;;10.23;3.22;;;0.90;99.90;;;;;;4982051;28;95709;-72
2022/04/11 02:42:42;;;;;;;15.02;4.00;;;0.90;99.90;;;;;;4980327;28;20052;-72
2022/04/11 02:45:09;;;;;;;9.55;3.50;;;0.90;99.90;;;;;;4976848;28;153025;-72
2022/04/11 02:47:36;;;;;;;10.40;3.60;;;0.90;99.90;;;;;;4971630;28;20054;-72
2022/04/11 02:50:02;;;;;;;12.80;3.80;;;0.90;99.90;;;;;;4994205;28;277403;-72
2022/04/11 02:52:29;;;;;;;12.68;3.47;;;0.80;99.90;;;;;;4957946;28;20054;-72
2022/04/11 02:54:58;;;;;;;11.02;3.97;;;0.80;99.90;;;;;;5000616;28;126245;-73
2022/04/11 02:57:24;;;;;;;10.77;4.38;;;0.80;99.90;;;;;;4959775;28;20053;-72
2022/04/11 02:59:52;;;;;;;11.30;3.50;;;0.80;99.90;;;;;;4974967;28;261383;-72
2022/04/11 03:02:18;;;;;;;9.27;3.60;;;0.80;99.90;;;;;;4975085;28;20046;-72
2022/04/11 03:04:45;;;;;;;11.40;3.63;;;0.80;99.90;;;;;;4940660;28;206541;-72
2022/04/11 03:07:11;;;;;;;10.68;4.10;;;0.80;99.90;;;;;;4941567;28;20523;-72
2022/04/11 03:09:38;;;;;;;15.20;4.40;;;0.70;99.90;;;;;;4983173;28;265722;-72
2022/04/11 03:12:05;;;;;;;12.13;4.38;;;0.70;99.90;;;;;;4969900;28;20049;-72
2022/04/11 03:14:32;;;;;;;12.73;4.07;;;0.70;99.90;;;;;;4988320;28;264902;-72
2022/04/11 03:16:58;;;;;;;11.52;4.53;;;0.70;99.90;;;;;;4970626;28;20057;-72
2022/04/11 03:19:25;;;;;;;11.07;4.20;;;0.60;99.90;;;;;;4985997;28;268351;-72
2022/04/11 03:21:51;;;;;;;9.75;3.90;;;0.60;99.90;;;;;;4974800;28;20042;-72
2022/04/11 03:24:17;;;;;;;11.38;4.15;;;0.60;99.90;;;;;;4985684;28;153013;-72
2022/04/11 03:26:43;;;;;;;12.93;4.40;;;0.60;99.90;;;;;;4977535;28;20037;-72
2022/04/11 03:29:09;;;;;;;11.43;4.32;;;0.50;99.90;;;;;;4987891;28;257182;-73
2022/04/11 03:31:36;;;;;;;13.75;4.13;;;0.50;99.90;;;;;;4974845;28;20048;-72
2022/04/11 03:34:02;;;;;;;11.80;4.25;;;0.50;99.90;;;;;;4969486;28;258384;-72
2022/04/11 03:36:28;;;;;;;11.70;3.90;;;0.50;99.90;;;;;;4976675;28;20430;-72
2022/04/11 03:38:54;;;;;;;10.80;3.97;;;0.50;99.90;;;;;;4984004;28;254414;-72
2022/04/11 03:41:20;;;;;;;10.25;4.25;;;0.50;99.90;;;;;;4959649;28;20050;-72
2022/04/11 03:43:46;;;;;;;10.70;4.10;;;0.60;99.90;;;;;;5007527;28;20539;-72
2022/04/11 03:46:12;;;;;;;11.98;4.38;;;0.60;99.90;;;;;;4947322;28;173071;-72
2022/04/11 03:48:38;;;;;;;11.00;4.35;;;0.60;99.90;;;;;;4982809;28;20426;-72
2022/04/11 03:51:04;;;;;;;11.90;4.47;;;0.70;99.90;;;;;;4931185;28;177505;-72
2022/04/11 03:53:30;;;;;;;13.30;5.07;;;0.70;99.90;;;;;;5001718;28;20054;-72
2022/04/11 03:55:57;;;;;;;11.90;4.45;;;0.80;99.90;;;;;;4951166;28;104402;-72
2022/04/11 03:58:23;;;;;;;12.63;4.65;;;0.90;99.90;;;;;;5001061;28;20049;-72
2022/04/11 04:00:49;;;;;;;13.32;4.95;;;0.90;99.90;;;;;;4954533;28;261762;-72
2022/04/11 04:03:15;;;;;;;11.93;4.75;;;0.90;99.90;;;;;;5000375;28;20957;-72
2022/04/11 04:05:46;;;;;;;12.32;4.78;;;1.00;99.90;;;;;;4927684;28;172005;-72
2022/04/11 04:08:13;;;;;;;11.95;5.10;;;1.00;99.90;;;;;;4982664;28;20046;-72
2022/04/11 04:10:40;;;;;;;11.88;4.60;;;1.00;99.90;;;;;;4932218;28;229702;-72
2022/04/11 04:13:07;;;;;;;12.77;5.45;;;1.10;99.90;;;;;;4981711;28;20053;-72
2022/04/11 04:15:33;;;;;;;10.05;4.85;;;1.10;99.90;;;;;;4966532;28;263327;-72
2022/04/11 04:17:59;;;;;;;12.23;5.10;;;1.10;99.90;;;;;;5016959;28;20080;-72
2022/04/11 04:20:26;;;;;;;11.80;4.85;;;1.20;99.90;;;;;;4989347;28;55137;-69
2022/04/11 04:22:53;;;;;;;12.63;5.05;;;1.20;99.90;;;;;;4950476;28;21136;-72
2022/04/11 04:25:19;;;;;;;11.52;5.00;;;1.20;99.90;;;;;;4984430;28;256475;-72
2022/04/11 04:27:45;;;;;;;11.18;4.55;;;1.30;99.90;;;;;;4938147;28;20047;-73
2022/04/11 04:30:12;;;;;;;12.25;4.97;;;1.30;99.90;;;;;;4980180;28;255933;-73
2022/04/11 04:32:39;;;;;;;13.15;4.60;;;1.30;99.90;;;;;;4977728;28;20513;-72
2022/04/11 04:35:06;;;;;;;10.93;4.40;;;1.40;99.90;;;;;;4992668;28;258064;-70
2022/04/11 04:37:32;;;;;;;12.60;4.85;;;1.40;99.90;;;;;;4967578;28;20414;-71
2022/04/11 04:39:58;;;;;;;11.90;5.22;;;1.40;99.90;;;;;;4982654;28;261182;-72
2022/04/11 04:42:26;;;;;;;11.32;5.03;;;1.50;99.90;;;;;;4955099;28;20049;-71
2022/04/11 04:44:53;;;;;;;10.43;4.57;;;1.50;99.90;;;;;;4981866;28;40890;-71
2022/04/11 04:47:19;;;;;;;9.77;4.07;;;1.60;99.90;;;;;;4944800;28;20498;-73
2022/04/11 04:49:46;;;;;;;12.93;4.70;;;1.60;99.90;;;;;;4981088;28;272504;-72
2022/04/11 04:52:13;;;;;;;10.25;4.13;;;1.60;99.90;;;;;;4976321;28;20044;-72
2022/04/11 04:54:39;;;;;;;15.30;4.63;;;1.70;99.90;;;;;;4982154;28;275376;-72
2022/04/11 04:57:06;;;;;;;13.32;4.40;;;1.70;99.90;;;;;;4980816;28;20034;-73
2022/04/11 04:59:33;;;;;;;9.95;4.05;;;1.70;99.90;;;;;;4979464;28;247563;-72
2022/04/11 05:01:59;;;;;;;11.45;3.90;;;1.70;99.90;;;;;;4972484;28;20045;-73
2022/04/11 05:04:25;;;;;;;9.00;3.42;;;1.80;99.90;;;;;;4971371;28;185558;-73
2022/04/11 05:06:52;;;;;;;10.60;3.95;;;1.80;99.90;;;;;;4961455;28;20145;-72
2022/04/11 05:09:18;;;;;;;8.95;3.60;;;1.90;99.90;;;;;;4980653;28;275082;-72
2022/04/11 05:11:44;;;;;;;9.52;3.60;;;1.90;99.90;;;;;;4964989;28;20061;-72
2022/04/11 05:14:11;;;;;;;10.85;3.60;;;1.90;99.90;;;;;;4959702;28;270457;-72
2022/04/11 05:16:37;;;;;;;9.85;3.97;;;1.90;99.90;;;;;;4951337;28;20475;-73
2022/04/11 05:19:04;;;;;;;14.27;3.73;;;2.00;99.90;;;;;;4975628;28;258281;-72
2022/04/11 05:21:30;;;;;;;8.52;3.17;;;2.00;99.90;;;;;;4958630;28;20649;-72
2022/04/11 05:23:57;;;;;;;10.70;3.60;;;2.00;99.90;;;;;;4974675;28;254349;-72
2022/04/11 05:26:23;;;;;;;9.55;3.65;;;2.00;99.90;;;;;;4950845;28;20076;-71
2022/04/11 05:28:49;;;;;;;11.20;3.58;;;2.10;99.90;;;;;;5000434;28;20049;-71
2022/04/11 05:31:16;;;;;;;9.48;3.78;;;2.10;99.90;;;;;;4953889;28;20042;-71
2022/04/11 05:33:42;;;;;;;9.40;3.47;;;2.20;99.90;;;;;;5001648;28;20057;-71
2022/04/11 05:36:08;;;;;;;9.90;3.80;;;2.20;99.90;;;;;;4954275;28;198946;-70
2022/04/11 05:38:35;;;;;;;8.18;3.33;;;2.30;99.90;;;;;;4991425;28;20045;-71
2022/04/11 05:41:01;;;;;;;11.15;3.50;;;2.30;99.90;;;;;;4965627;28;252084;-71
2022/04/11 05:43:27;;;;;;;10.48;2.92;;;2.30;99.90;;;;;;4986513;28;20058;-72
2022/04/11 05:45:53;;;;;;;10.05;2.92;;;2.40;99.90;;;;;;4937804;28;201009;-72
2022/04/11 05:48:20;;;;;;;8.13;3.00;;;2.50;99.90;;;;;;4987488;28;20057;-72
2022/04/11 05:50:46;;;;;;;9.85;2.88;;;2.50;99.90;;;;;;4945368;28;133898;-71
2022/04/11 05:53:12;;;;;;;10.15;2.97;;;2.50;99.90;;;;;;4999583;28;20426;-72
2022/04/11 05:55:38;;;;;;;8.95;2.90;;;2.60;99.90;;;;;;4958824;28;53398;-71
2022/04/11 05:58:04;;;;;;;9.02;2.97;;;2.60;99.90;;;;;;4972373;28;20064;-71
2022/04/11 06:00:31;;;;;;;9.98;2.97;;;2.70;99.90;;;;;;4934275;28;80850;-72
2022/04/11 06:02:57;;;;;;;9.18;3.00;;;2.70;99.90;;;;;;4987007;28;20069;-72
2022/04/11 06:05:23;;;;;;;8.07;3.03;;;2.80;99.90;;;;;;4968196;28;115597;-73
2022/04/11 06:07:49;;;;;;;11.43;3.08;;;2.80;99.90;;;;;;4966209;28;20046;-73
2022/04/11 06:10:15;;;;;;;9.73;2.92;;;2.90;99.90;;;;;;4980456;28;127590;-73
2022/04/11 06:12:41;;;;;;;11.10;3.22;;;2.90;99.90;;;;;;4957423;28;20049;-73
2022/04/11 06:15:08;;;;;;;12.48;3.83;;;3.00;99.90;;;;;;4975935;28;237909;-73
2022/04/11 06:17:34;;;;;;;9.90;3.35;;;3.10;99.90;;;;;;4946677;28;20030;-73
2022/04/11 06:20:02;;;;;;;10.88;3.55;;;3.10;99.90;;;;;;4986744;28;228601;-73
2022/04/11 06:22:28;;;;;;;11.27;3.22;;;3.20;99.90;;;;;;4965306;28;20057;-73
2022/04/11 06:25:01;;;;;;;9.15;3.00;;;3.20;99.90;;;;;;4998782;28;120201;-72
2022/04/11 06:27:27;;;;;;;12.25;3.13;;;3.30;99.90;;;;;;4968268;28;20057;-73
2022/04/11 06:29:56;;;;;;;15.40;3.03;;;3.40;99.90;;;;;;4994498;28;261912;-73
2022/04/11 06:32:30;;;;;;;11.55;3.13;;;3.40;99.90;;;;;;4965975;28;20566;-73
2022/04/11 06:34:57;;;;;;;8.85;3.20;;;3.50;99.90;;;;;;4994250;28;181193;-73
2022/04/11 06:37:24;;;;;;;11.52;2.72;;;3.50;99.90;;;;;;4962065;28;20049;-73
2022/04/11 06:39:51;;;;;;;9.73;3.17;;;3.60;99.90;;;;;;4975636;28;122005;-73
2022/04/11 06:42:17;;;;;;;10.50;2.92;;;3.70;99.90;;;;;;4960768;28;20042;-73
2022/04/11 06:44:44;;;;;;;12.15;3.50;;;3.80;99.90;;;;;;4984266;28;30956;-73
2022/04/11 06:47:10;;;;;;;10.25;2.92;;;3.90;99.90;;;;;;4967991;28;20514;-73
2022/04/11 06:49:37;;;;;;;12.40;3.13;;;3.90;99.90;;;;;;4989651;28;260433;-73
2022/04/11 06:52:04;;;;;;;10.45;2.92;;;4.00;99.90;;;;;;4945115;28;20046;-73
2022/04/11 06:54:31;;;;;;;11.77;3.00;;;4.10;99.90;;;;;;4998888;28;144087;-73
2022/04/11 06:56:57;;;;;;;17.35;3.10;;;4.10;99.90;;;;;;4954332;28;20096;-72
2022/04/11 06:59:24;;;;;;;10.15;3.00;;;4.30;99.90;;;;;;4987268;28;88041;-73
2022/04/11 07:01:53;;;;;;;11.93;3.17;;;4.30;99.90;;;;;;4953012;28;20046;-73
2022/04/11 07:04:20;;;;;;;14.55;3.70;;;4.40;99.90;;;;;;4975189;28;143876;-73
2022/04/11 07:06:47;;;;;;;10.18;2.92;;;4.50;99.90;;;;;;4973276;28;20037;-73
2022/04/11 07:09:14;;;;;;;10.75;3.10;;;4.60;99.90;;;;;;4988819;28;287069;-74
2022/04/11 07:11:40;;;;;;;10.88;2.80;;;4.60;99.90;;;;;;4968562;28;20446;-74
2022/04/11 07:14:07;;;;;;;12.40;3.70;;;4.70;99.90;;;;;;4980583;28;255085;-74
2022/04/11 07:16:33;;;;;;;11.10;3.38;;;4.80;99.90;;;;;;4951701;28;21797;-74
2022/04/11 07:18:59;;;;;;;9.82;3.38;;;4.90;99.90;;;;;;4967917;28;130764;-74
2022/04/11 07:21:25;;;;;;;11.05;3.65;;;5.00;99.90;;;;;;4960110;28;20041;-74
2022/04/11 07:23:51;;;;;;;8.63;2.67;;;5.10;99.90;;;;;;4985172;28;261113;-74
2022/04/11 07:26:18;;;;;;;9.95;3.28;;;5.20;99.90;;;;;;4979091;28;20045;-73
2022/04/11 07:28:47;;;;;;;11.63;3.38;;;5.30;99.90;;;;;;5004074;28;20419;-73
2022/04/11 07:31:13;;;;;;;12.93;3.13;;;5.40;99.90;;;;;;4950430;28;25462;-73
2022/04/11 07:33:39;;;;;;;12.70;3.67;;;5.60;99.90;;;;;;4987681;28;20053;-73
2022/04/11 07:36:06;;;;;;;10.55;3.60;;;5.70;99.90;;;;;;4955318;28;180397;-73
2022/04/11 07:38:32;;;;;;;13.68;3.63;;;5.80;99.90;;;;;;4974946;28;20054;-73
2022/04/11 07:40:58;;;;;;;12.27;3.80;;;6.00;99.90;;;;;;4946224;28;90932;-73
2022/04/11 07:43:24;;;;;;;10.45;3.80;;;6.10;99.90;;;;;;4973647;28;20526;-74
2022/04/11 07:45:50;;;;;;;10.85;3.80;;;6.30;99.90;;;;;;4955653;28;113551;-74
2022/04/11 07:48:16;;;;;;;11.32;3.65;;;6.40;99.90;;;;;;4991219;28;20084;-72
2022/04/11 07:50:42;;;;;;;11.93;4.18;;;6.60;99.90;;;;;;4949533;28;271673;-72
2022/04/11 07:53:09;;;;;;;9.90;3.47;;;6.80;99.90;;;;;;4987051;28;20149;-72
2022/04/11 07:55:35;;;;;;;11.98;3.65;;;7.00;99.90;;;;;;4950513;28;83986;-72
2022/04/11 07:58:01;;;;;;;12.30;3.92;;;7.20;99.90;;;;;;4986453;28;20054;-72
2022/04/11 08:00:28;;;;;;;10.80;3.33;;;7.30;99.90;;;;;;4960841;28;251593;-74
2022/04/11 08:02:55;;;;;;;10.02;3.50;;;7.40;99.90;;;;;;4981328;28;20038;-72
2022/04/11 08:05:23;;;;;;;12.23;3.58;;;7.50;99.90;;;;;;4961571;28;237461;-72
2022/04/11 08:07:50;;;;;;;10.45;3.60;;;7.70;99.90;;;;;;4967454;28;20057;-73
2022/04/11 08:10:16;;;;;;;11.27;3.53;;;7.90;99.90;;;;;;4963550;28;170604;-72
2022/04/11 08:12:55;;;;;;;9.57;3.30;;;8.30;99.90;;;;;;4967163;28;20041;-73
2022/04/11 08:15:22;;;;;;;9.63;3.20;;;8.60;99.90;;;;;;4974053;28;245350;-73
2022/04/11 08:17:49;;;;;;;11.95;3.38;;;8.90;99.90;;;;;;4939099;28;20717;-72
2022/04/11 08:20:15;;;;;;;10.00;2.85;;;9.20;99.90;;;;;;4977198;28;150345;-73
2022/04/11 08:22:41;;;;;;;9.40;3.00;;;9.40;99.90;;;;;;4954438;28;20046;-74
2022/04/11 08:25:08;;;;;;;10.68;2.92;;;9.80;99.90;;;;;;4974391;28;94862;-74
2022/04/11 08:27:35;;;;;;;11.50;3.30;;;10.10;99.90;;;;;;4967714;28;20040;-73
2022/04/11 08:30:03;;;;;;;10.00;3.20;;;10.40;99.90;;;;;;4990252;28;46027;-73
2022/04/11 08:32:40;;;;;;;10.23;3.33;;;10.60;99.90;;;;;;4967685;28;20038;-73
2022/04/11 08:35:08;;;;;;;8.98;2.75;;;10.70;99.90;;;;;;4966099;28;64353;-73
2022/04/11 08:37:37;;;;;;;10.15;2.95;;;10.70;99.90;;;;;;4953689;28;20033;-73
2022/04/11 08:40:07;;;;;;;11.05;2.97;;;10.70;99.90;;;;;;4994513;28;24248;-72
2022/04/11 08:42:33;;;;;;;10.27;2.95;;;11.00;99.90;;;;;;4962624;28;20126;-74
2022/04/11 08:45:00;;;;;;;9.50;3.22;;;11.40;99.90;;;;;;4999687;28;96521;-73
2022/04/11 08:47:27;;;;;;;11.02;3.17;;;11.80;99.90;;;;;;4969086;28;20072;-73
2022/04/11 08:49:53;;;;;;;10.10;3.00;;;12.40;99.90;;;;;;4977107;28;248460;-74
2022/04/11 08:52:20;;;;;;;11.57;2.90;;;13.20;99.90;;;;;;4966773;28;20541;-74
2022/04/11 08:54:47;;;;;;;9.75;2.47;;;14.00;99.90;;;;;;4980851;28;20632;-73
2022/04/11 08:57:14;;;;;;;10.30;2.85;;;14.80;99.90;;;;;;4978581;28;20050;-73
2022/04/11 08:59:40;;;;;;;9.80;2.58;;;15.40;99.90;;;;;;4980794;28;141563;-73
2022/04/11 09:02:09;;;;;;;10.43;2.90;;;15.80;99.90;;;;;;4966258;28;20537;-74
2022/04/11 09:04:54;;;;;;;8.88;2.65;;;16.20;98.90;;;;;;4963166;28;151988;-73
2022/04/11 09:07:20;;;;;;;9.35;2.88;;;16.70;94.90;;;;;;4977038;28;20042;-73
2022/04/11 09:09:48;;;;;;;8.25;2.30;;;17.10;97.20;;;;;;4974100;28;27437;-73
2022/04/11 09:12:16;;;;;;;10.70;2.67;;;17.20;91.30;;;;;;4974958;28;20403;-73
2022/04/11 09:14:44;;;;;;;8.60;2.58;;;17.50;91.50;;;;;;4980968;28;141150;-74
2022/04/11 09:17:11;;;;;;;11.73;2.35;;;17.90;85.70;;;;;;4968462;28;20045;-73
2022/04/11 09:19:38;;;;;;;7.57;2.30;;;18.10;80.50;;;;;;4980377;28;67638;-73
2022/04/11 09:22:05;;;;;;;10.48;2.25;;;18.30;73.70;;;;;;4971839;28;20041;-75
2022/04/11 09:24:32;;;;;;;6.97;1.83;;;18.50;68.60;;;;;;4986950;28;165307;-74
2022/04/11 09:26:58;;;;;;;9.80;2.13;;;18.80;66.50;;;;;;4988698;28;20034;-74
2022/04/11 09:29:30;;;;;;;8.75;2.10;;;19.10;62.50;;;;;;4971394;28;47411;-73
2022/04/11 09:32:03;;;;;;;9.57;2.00;;;19.30;60.10;;;;;;4962077;28;20052;-74
2022/04/11 09:34:30;;;;;;;8.77;2.03;;;19.30;54.30;;;;;;5014039;28;25436;-73
2022/04/11 09:37:00;;;;;;;8.07;1.80;;;19.60;55.80;;;;;;4996308;28;20068;-77
2022/04/11 09:39:33;;;;;;;8.60;1.70;;;19.70;50.90;;;;;;4977148;28;127004;-74
2022/04/11 09:42:00;;;;;;;6.57;1.50;;;19.60;50.40;;;;;;4988117;28;20307;-74
2022/04/11 09:44:27;;;;;;;10.05;2.15;;;19.80;50.80;;;;;;4992993;28;193533;-74
2022/04/11 09:47:14;;;;;;;8.13;1.92;;;19.80;46.50;;;;;;4972376;28;20415;-75
2022/04/11 09:49:41;;;;;;;7.82;1.70;;;19.90;47.40;;;;;;4995348;28;163496;-74
2022/04/11 09:52:13;;;;;;;9.52;2.10;;;20.40;47.80;;;;;;4987983;28;20050;-77
2022/04/11 09:54:50;;;;;;;6.90;1.83;;;20.50;43.70;;;;;;4991013;28;200880;-76
2022/04/11 09:57:17;;;;;;;7.07;1.90;;;20.70;46.90;;;;;;4984768;28;20663;-75
2022/04/11 09:59:45;;;;;;;9.32;2.28;;;20.90;45.00;;;;;;4989928;28;307794;-73
2022/04/11 10:02:17;;;;;;;7.32;1.80;;;21.00;45.80;;;;;;4993379;28;20506;-74
2022/04/11 10:04:47;;;;;;;7.78;2.13;;;21.10;45.20;;;;;;4985014;28;248465;-76
2022/04/11 10:07:13;;;;;;;9.05;2.28;;;21.40;43.70;;;;;;4986090;28;20048;-73
2022/04/11 10:09:40;;;;;;;8.35;2.22;;;21.90;44.20;;;;;;4995453;28;274495;-76
2022/04/11 10:12:07;;;;;;;8.65;2.28;;;22.20;44.20;;;;;;4998688;28;20049;-75
2022/04/11 10:14:34;;;;;;;11.20;2.00;;;22.50;42.70;;;;;;4998542;28;268764;-74
2022/04/11 10:17:02;;;;;;;8.18;2.25;;;22.40;42.20;;;;;;4971973;28;20057;-74
2022/04/11 10:19:33;;;;;;;7.13;1.90;;;22.50;41.20;;;;;;4990905;28;120086;-77
2022/04/11 10:22:05;;;;;;;7.22;2.05;;;22.50;41.80;;;;;;4979518;28;20326;-74
2022/04/11 10:24:34;;;;;;;8.27;2.20;;;22.80;40.10;;;;;;4981375;28;240642;-75
2022/04/11 10:27:23;;;;;;;7.20;2.17;;;23.00;40.40;;;;;;4955618;28;20057;-75
2022/04/11 10:29:51;;;;;;;6.53;1.92;;;23.20;37.00;;;;;;4987686;28;89151;-73
2022/04/11 10:32:29;;;;;;;7.57;2.03;;;23.00;40.20;;;;;;4941923;28;20056;-76
2022/04/11 10:35:30;;;;;;;7.90;2.10;;;23.00;39.90;;;;;;5006970;28;208213;-74
2022/04/11 10:37:56;;;;;;;8.35;2.30;;;22.80;35.50;;;;;;4945749;28;20475;-74
2022/04/11 10:40:22;;;;;;;9.98;2.50;;;22.40;39.70;;;;;;4980667;28;108716;-75
2022/04/11 10:43:01;;;;;;;8.77;2.28;;;22.40;39.20;;;;;;4935170;28;20041;-74
2022/04/11 10:45:38;;;;;;;7.30;2.20;;;22.60;38.50;;;;;;4967392;28;180265;-74
2022/04/11 10:48:06;;;;;;;8.10;2.20;;;22.70;39.00;;;;;;4970591;28;20038;-73
2022/04/11 10:50:35;;;;;;;8.05;2.25;;;22.70;40.00;;;;;;4970003;28;258058;-74
2022/04/11 10:53:23;;;;;;;9.27;2.50;;;23.10;39.30;;;;;;5010075;28;20053;-74
2022/04/11 10:55:54;;;;;;;8.90;2.13;;;23.30;38.10;;;;;;4970232;28;260154;-77
2022/04/11 10:58:42;;;;;;;9.30;2.22;;;23.20;40.10;;;;;;5017916;28;20038;-75
2022/04/11 11:01:09;;;;;;;7.80;2.30;;;23.60;38.90;;;;;;4954754;28;97016;-76
2022/04/11 11:03:35;;;;;;;8.32;2.63;;;23.30;38.90;;;;;;5005479;28;20491;-74
2022/04/11 11:06:23;;;;;;;8.35;2.40;;;23.30;37.30;;;;;;4953620;28;251250;-73
2022/04/11 11:08:50;;;;;;;9.88;2.75;;;23.30;36.30;;;;;;5010286;28;256766;-72
2022/04/11 11:11:27;;;;;;;9.23;2.72;;;23.30;36.80;;;;;;4974302;28;20041;-73
2022/04/11 11:13:55;;;;;;;7.53;2.33;;;23.40;36.70;;;;;;4985846;28;248619;-73
2022/04/11 11:16:22;;;;;;;7.50;2.67;;;23.80;39.00;;;;;;4976407;28;20049;-75
2022/04/11 11:18:48;;;;;;;10.10;2.80;;;24.20;36.70;;;;;;5003146;28;20060;-73
2022/04/11 11:21:34;;;;;;;7.97;2.65;;;24.10;36.30;;;;;;4960731;28;126479;-73
2022/04/11 11:24:12;;;;;;;9.25;2.80;;;24.30;37.60;;;;;;4981541;28;272599;-73
2022/04/11 11:26:46;;;;;;;10.00;2.67;;;24.20;37.10;;;;;;4934665;28;20561;-74
2022/04/11 11:29:35;;;;;;;9.27;2.80;;;24.30;36.40;;;;;;4980811;28;267833;-73
2022/04/11 11:32:04;;;;;;;8.13;2.72;;;24.20;35.20;;;;;;4978081;28;20034;-74
2022/04/11 11:34:34;;;;;;;9.35;2.70;;;24.10;34.70;;;;;;4985459;28;242637;-73
2022/04/11 11:37:08;;;;;;;8.73;2.80;;;24.10;35.40;;;;;;4977133;28;20053;-75
2022/04/11 11:39:36;;;;;;;8.07;2.90;;;24.30;33.90;;;;;;4993662;28;263304;-76
2022/04/11 11:42:11;;;;;;;9.45;2.90;;;24.40;34.20;;;;;;4959343;28;20044;-74
2022/04/11 11:44:45;;;;;;;9.30;3.13;;;24.10;35.60;;;;;;4994401;28;255860;-72
2022/04/11 11:47:11;;;;;;;8.80;2.80;;;24.50;34.70;;;;;;4977506;28;20057;-73
2022/04/11 11:49:46;;;;;;;7.85;3.10;;;24.60;35.00;;;;;;4996404;28;20060;-73
2022/04/11 11:52:17;;;;;;;8.63;3.03;;;24.90;33.90;;;;;;4991876;28;20052;-76
2022/04/11 11:54:48;;;;;;;8.55;3.08;;;24.70;33.50;;;;;;4992258;28;110833;-73
2022/04/11 11:57:19;;;;;;;8.40;3.05;;;24.50;34.00;;;;;;4976253;28;20076;-75
2022/04/11 11:59:47;;;;;;;9.15;3.22;;;24.70;34.90;;;;;;4975145;28;70396;-76
2022/04/11 12:04:58;;;;;;;8.43;2.88;;;25.20;33.50;;;;;;4971898;28;269416;-74
2022/04/11 12:07:24;;;;;;;9.68;3.10;;;25.30;34.10;;;;;;4985230;28;20072;-75
2022/04/11 12:09:51;;;;;;;8.95;3.22;;;25.40;35.60;;;;;;4983224;28;263398;-76
2022/04/11 12:12:21;;;;;;;8.32;3.00;;;25.60;34.70;;;;;;4967808;28;20117;-75
2022/04/11 12:15:06;;;;;;;8.30;3.10;;;25.80;34.10;;;;;;4971560;28;189486;-75
2022/04/11 12:17:38;;;;;;;8.50;2.92;;;25.70;33.30;;;;;;4991957;28;20057;-75
2022/04/11 12:20:16;;;;;;;9.05;3.38;;;25.80;34.40;;;;;;4994844;28;256356;-74
2022/04/11 12:22:59;;;;;;;9.48;3.33;;;26.00;33.70;;;;;;4968300;28;20065;-75
2022/04/11 12:25:28;;;;;;;11.05;3.10;;;26.00;33.50;;;;;;4976487;28;54966;-71
2022/04/11 12:28:18;;;;;;;9.43;3.10;;;25.80;33.10;;;;;;4964722;28;20042;-75
2022/04/11 12:31:11;;;;;;;8.82;3.22;;;26.10;32.80;;;;;;4953263;28;59745;-78
2022/04/11 12:33:52;;;;;;;9.70;3.28;;;26.30;32.50;;;;;;4992431;28;20049;-76
2022/04/11 12:36:20;;;;;;;9.50;3.00;;;26.30;32.90;;;;;;4978242;28;20599;-74
2022/04/11 12:38:46;;;;;;;8.20;2.80;;;26.30;32.20;;;;;;4997308;28;20049;-78
2022/04/11 12:41:25;;;;;;;7.78;2.80;;;26.50;32.50;;;;;;4967121;28;20057;-74
2022/04/11 12:44:03;;;;;;;9.68;3.42;;;26.90;33.70;;;;;;4991409;28;255676;-75
2022/04/11 12:46:29;;;;;;;10.45;3.65;;;26.90;31.00;;;;;;4973474;28;20053;-74
2022/04/11 12:48:56;;;;;;;8.83;3.10;;;26.50;31.10;;;;;;4980916;28;266831;-76
2022/04/11 12:51:23;;;;;;;9.88;3.33;;;26.60;32.60;;;;;;4985144;28;20053;-73
2022/04/11 12:53:50;;;;;;;8.75;3.25;;;26.70;33.50;;;;;;4993818;28;258020;-74